sensor_id;sensor_type;location;lat;lon;timestamp;temperature;humidity
24518;DHT22;12678;51.336;12.406;2023-07-16T00:02:13;22.40;99.90
24518;DHT22;12678;51.336;12.406;2023-07-16T00:04:38;22.50;99.90
24518;DHT22;12678;51.336;12.406;2023-07-16T00:07:04;22.40;99.90
24518;DHT22;12678;51.336;12.406;2023-07-16T00:09:30;22.40;99.90
24518;DHT22;12678;51.336;12.406;2023-07-16T00:11:56;22.50;99.90
24518;DHT22;12678;51.336;12.406;2023-07-16T00:14:22;22.40;99.90
24518;DHT22;12678;51.336;12.406;2023-07-16T00:16:47;22.50;99.90
24518;DHT22;12678;51.336;12.406;2023-07-16T00:19:14;22.50;99.90
24518;DHT22;12678;51.336;12.406;2023-07-16T00:21:40;22.50;99.90
24518;DHT22;12678;51.336;12.406;2023-07-16T00:24:05;22.30;99.90
24518;DHT22;12678;51.336;12.406;2023-07-16T00:26:31;22.20;99.90
24518;DHT22;12678;51.336;12.406;2023-07-16T00:28:57;22.00;99.90
24518;DHT22;12678;51.336;12.406;2023-07-16T00:31:22;21.90;99.90
24518;DHT22;12678;51.336;12.406;2023-07-16T00:33:48;21.80;99.90
24518;DHT22;12678;51.336;12.406;2023-07-16T00:36:14;21.70;99.90
24518;DHT22;12678;51.336;12.406;2023-07-16T00:38:39;21.50;99.90
24518;DHT22;12678;51.336;12.406;2023-07-16T00:41:08;21.40;99.90
24518;DHT22;12678;51.336;12.406;2023-07-16T00:43:33;21.30;99.90
24518;DHT22;12678;51.336;12.406;2023-07-16T00:45:59;21.30;99.90
24518;DHT22;12678;51.336;12.406;2023-07-16T00:48:25;21.30;99.90
24518;DHT22;12678;51.336;12.406;2023-07-16T00:50:52;21.20;99.90
24518;DHT22;12678;51.336;12.406;2023-07-16T00:53:18;21.20;99.90
24518;DHT22;12678;51.336;12.406;2023-07-16T00:55:44;21.10;99.90
24518;DHT22;12678;51.336;12.406;2023-07-16T00:58:10;21.00;99.90
24518;DHT22;12678;51.336;12.406;2023-07-16T01:00:37;21.00;99.90
24518;DHT22;12678;51.336;12.406;2023-07-16T01:03:05;21.00;99.90
24518;DHT22;12678;51.336;12.406;2023-07-16T01:05:36;21.00;99.90
24518;DHT22;12678;51.336;12.406;2023-07-16T01:08:08;21.10;99.90
24518;DHT22;12678;51.336;12.406;2023-07-16T01:10:35;21.00;99.90
24518;DHT22;12678;51.336;12.406;2023-07-16T01:13:00;21.00;99.90
24518;DHT22;12678;51.336;12.406;2023-07-16T01:15:27;20.90;99.90
24518;DHT22;12678;51.336;12.406;2023-07-16T01:17:52;20.90;99.90
24518;DHT22;12678;51.336;12.406;2023-07-16T01:20:18;20.90;99.90
24518;DHT22;12678;51.336;12.406;2023-07-16T01:23:08;20.90;99.90
24518;DHT22;12678;51.336;12.406;2023-07-16T01:31:17;20.90;99.90
24518;DHT22;12678;51.336;12.406;2023-07-16T01:33:44;20.90;99.90
24518;DHT22;12678;51.336;12.406;2023-07-16T01:36:10;20.90;99.90
24518;DHT22;12678;51.336;12.406;2023-07-16T01:38:36;20.90;99.90
24518;DHT22;12678;51.336;12.406;2023-07-16T01:41:02;20.90;99.90
24518;DHT22;12678;51.336;12.406;2023-07-16T01:43:28;20.90;99.90
24518;DHT22;12678;51.336;12.406;2023-07-16T01:45:54;20.90;99.90
24518;DHT22;12678;51.336;12.406;2023-07-16T01:50:51;20.90;99.90
24518;DHT22;12678;51.336;12.406;2023-07-16T01:53:17;20.90;99.90
24518;DHT22;12678;51.336;12.406;2023-07-16T01:55:42;20.90;99.90
24518;DHT22;12678;51.336;12.406;2023-07-16T01:58:08;20.90;99.90
24518;DHT22;12678;51.336;12.406;2023-07-16T02:00:35;20.90;99.90
24518;DHT22;12678;51.336;12.406;2023-07-16T02:03:01;20.90;99.90
24518;DHT22;12678;51.336;12.406;2023-07-16T02:05:26;20.90;99.90
24518;DHT22;12678;51.336;12.406;2023-07-16T02:07:52;21.00;99.90
24518;DHT22;12678;51.336;12.406;2023-07-16T02:10:18;20.90;99.90
24518;DHT22;12678;51.336;12.406;2023-07-16T02:12:43;21.00;99.90
24518;DHT22;12678;51.336;12.406;2023-07-16T02:15:09;21.00;99.90
24518;DHT22;12678;51.336;12.406;2023-07-16T02:17:35;21.00;99.90
24518;DHT22;12678;51.336;12.406;2023-07-16T02:20:01;21.00;99.90
24518;DHT22;12678;51.336;12.406;2023-07-16T02:22:27;21.00;99.90
24518;DHT22;12678;51.336;12.406;2023-07-16T02:24:52;21.00;99.90
24518;DHT22;12678;51.336;12.406;2023-07-16T02:27:18;21.10;99.90
24518;DHT22;12678;51.336;12.406;2023-07-16T02:29:44;21.10;99.90
24518;DHT22;12678;51.336;12.406;2023-07-16T02:32:09;21.10;99.90
24518;DHT22;12678;51.336;12.406;2023-07-16T02:34:35;21.20;99.90
24518;DHT22;12678;51.336;12.406;2023-07-16T02:37:00;21.20;99.90
24518;DHT22;12678;51.336;12.406;2023-07-16T02:39:26;21.20;99.90
24518;DHT22;12678;51.336;12.406;2023-07-16T02:41:52;21.20;99.90
24518;DHT22;12678;51.336;12.406;2023-07-16T02:44:17;21.20;99.90
24518;DHT22;12678;51.336;12.406;2023-07-16T02:46:43;21.30;99.90
24518;DHT22;12678;51.336;12.406;2023-07-16T02:49:09;21.30;99.90
24518;DHT22;12678;51.336;12.406;2023-07-16T02:51:35;21.20;99.90
24518;DHT22;12678;51.336;12.406;2023-07-16T02:54:00;21.20;99.90
24518;DHT22;12678;51.336;12.406;2023-07-16T02:56:26;21.20;99.90
24518;DHT22;12678;51.336;12.406;2023-07-16T02:58:52;21.20;99.90
24518;DHT22;12678;51.336;12.406;2023-07-16T03:01:18;21.30;99.90
24518;DHT22;12678;51.336;12.406;2023-07-16T03:03:43;21.30;99.90
24518;DHT22;12678;51.336;12.406;2023-07-16T03:06:09;21.30;99.90
24518;DHT22;12678;51.336;12.406;2023-07-16T03:08:35;21.20;99.90
24518;DHT22;12678;51.336;12.406;2023-07-16T03:11:00;21.20;99.90
24518;DHT22;12678;51.336;12.406;2023-07-16T03:13:26;21.30;99.90
24518;DHT22;12678;51.336;12.406;2023-07-16T03:15:51;21.30;99.90
24518;DHT22;12678;51.336;12.406;2023-07-16T03:18:18;21.30;99.90
24518;DHT22;12678;51.336;12.406;2023-07-16T03:20:44;21.20;99.90
24518;DHT22;12678;51.336;12.406;2023-07-16T03:23:10;21.20;99.90
24518;DHT22;12678;51.336;12.406;2023-07-16T03:25:36;21.10;99.90
24518;DHT22;12678;51.336;12.406;2023-07-16T03:28:01;21.10;99.90
24518;DHT22;12678;51.336;12.406;2023-07-16T03:30:27;21.10;99.90
24518;DHT22;12678;51.336;12.406;2023-07-16T03:32:53;21.20;99.90
24518;DHT22;12678;51.336;12.406;2023-07-16T03:35:19;21.20;99.90
24518;DHT22;12678;51.336;12.406;2023-07-16T03:37:44;21.20;99.90
24518;DHT22;12678;51.336;12.406;2023-07-16T03:40:15;21.10;99.90
24518;DHT22;12678;51.336;12.406;2023-07-16T03:42:40;21.20;99.90
24518;DHT22;12678;51.336;12.406;2023-07-16T03:45:07;21.20;99.90
24518;DHT22;12678;51.336;12.406;2023-07-16T03:47:32;21.20;99.90
24518;DHT22;12678;51.336;12.406;2023-07-16T03:49:58;21.20;99.90
24518;DHT22;12678;51.336;12.406;2023-07-16T03:52:24;21.30;99.90
24518;DHT22;12678;51.336;12.406;2023-07-16T03:54:50;21.30;99.90
24518;DHT22;12678;51.336;12.406;2023-07-16T03:57:16;21.30;99.90
24518;DHT22;12678;51.336;12.406;2023-07-16T03:59:42;21.30;99.90
24518;DHT22;12678;51.336;12.406;2023-07-16T04:02:08;21.30;99.90
24518;DHT22;12678;51.336;12.406;2023-07-16T04:04:34;21.30;99.90
24518;DHT22;12678;51.336;12.406;2023-07-16T04:06:59;21.40;99.90
24518;DHT22;12678;51.336;12.406;2023-07-16T04:09:25;21.30;99.90
24518;DHT22;12678;51.336;12.406;2023-07-16T04:11:50;21.30;99.90
24518;DHT22;12678;51.336;12.406;2023-07-16T04:14:16;21.30;99.90
24518;DHT22;12678;51.336;12.406;2023-07-16T04:16:42;21.30;99.90
24518;DHT22;12678;51.336;12.406;2023-07-16T04:19:08;21.20;99.90
24518;DHT22;12678;51.336;12.406;2023-07-16T04:21:34;21.20;99.90
24518;DHT22;12678;51.336;12.406;2023-07-16T04:24:01;21.30;99.90
24518;DHT22;12678;51.336;12.406;2023-07-16T04:26:27;21.30;99.90
24518;DHT22;12678;51.336;12.406;2023-07-16T04:28:53;21.30;99.90
24518;DHT22;12678;51.336;12.406;2023-07-16T04:31:18;21.50;99.90
24518;DHT22;12678;51.336;12.406;2023-07-16T04:33:44;21.60;99.90
24518;DHT22;12678;51.336;12.406;2023-07-16T04:36:09;21.70;99.90
24518;DHT22;12678;51.336;12.406;2023-07-16T04:38:35;21.80;99.90
24518;DHT22;12678;51.336;12.406;2023-07-16T04:41:00;21.90;99.90
24518;DHT22;12678;51.336;12.406;2023-07-16T04:43:26;22.10;99.90
24518;DHT22;12678;51.336;12.406;2023-07-16T04:45:52;22.20;99.90
24518;DHT22;12678;51.336;12.406;2023-07-16T04:48:17;22.50;99.90
24518;DHT22;12678;51.336;12.406;2023-07-16T04:50:43;22.70;99.90
24518;DHT22;12678;51.336;12.406;2023-07-16T04:53:08;22.70;99.90
24518;DHT22;12678;51.336;12.406;2023-07-16T04:55:38;22.70;99.90
24518;DHT22;12678;51.336;12.406;2023-07-16T04:58:04;22.70;99.90
24518;DHT22;12678;51.336;12.406;2023-07-16T05:00:32;22.70;99.90
24518;DHT22;12678;51.336;12.406;2023-07-16T05:02:58;22.60;99.90
24518;DHT22;12678;51.336;12.406;2023-07-16T05:05:24;22.50;99.90
24518;DHT22;12678;51.336;12.406;2023-07-16T05:07:49;22.40;99.90
24518;DHT22;12678;51.336;12.406;2023-07-16T05:10:15;22.40;99.90
24518;DHT22;12678;51.336;12.406;2023-07-16T05:12:41;22.50;99.90
24518;DHT22;12678;51.336;12.406;2023-07-16T05:15:07;23.00;99.90
24518;DHT22;12678;51.336;12.406;2023-07-16T05:17:32;24.40;99.90
24518;DHT22;12678;51.336;12.406;2023-07-16T05:19:58;25.60;99.90
24518;DHT22;12678;51.336;12.406;2023-07-16T05:22:24;26.60;99.90
24518;DHT22;12678;51.336;12.406;2023-07-16T05:24:49;27.50;99.90
24518;DHT22;12678;51.336;12.406;2023-07-16T05:27:15;27.30;99.90
24518;DHT22;12678;51.336;12.406;2023-07-16T05:29:41;27.40;99.90
24518;DHT22;12678;51.336;12.406;2023-07-16T05:32:07;27.10;99.90
24518;DHT22;12678;51.336;12.406;2023-07-16T05:34:33;26.50;99.90
24518;DHT22;12678;51.336;12.406;2023-07-16T05:36:59;26.10;99.90
24518;DHT22;12678;51.336;12.406;2023-07-16T05:39:25;25.50;99.90
24518;DHT22;12678;51.336;12.406;2023-07-16T05:41:50;24.90;99.90
24518;DHT22;12678;51.336;12.406;2023-07-16T05:44:16;24.90;99.90
24518;DHT22;12678;51.336;12.406;2023-07-16T05:46:42;24.80;99.90
24518;DHT22;12678;51.336;12.406;2023-07-16T05:49:07;24.70;99.90
24518;DHT22;12678;51.336;12.406;2023-07-16T05:51:33;24.60;99.90
24518;DHT22;12678;51.336;12.406;2023-07-16T05:53:59;24.40;99.90
24518;DHT22;12678;51.336;12.406;2023-07-16T05:56:24;24.20;99.90
24518;DHT22;12678;51.336;12.406;2023-07-16T05:58:50;24.50;99.90
24518;DHT22;12678;51.336;12.406;2023-07-16T06:01:15;25.20;99.90
24518;DHT22;12678;51.336;12.406;2023-07-16T06:03:41;26.00;99.90
24518;DHT22;12678;51.336;12.406;2023-07-16T06:06:08;26.90;99.90
24518;DHT22;12678;51.336;12.406;2023-07-16T06:08:34;27.00;99.90
24518;DHT22;12678;51.336;12.406;2023-07-16T06:11:00;26.90;99.90
24518;DHT22;12678;51.336;12.406;2023-07-16T06:13:26;26.60;99.90
24518;DHT22;12678;51.336;12.406;2023-07-16T06:15:52;26.60;99.90
24518;DHT22;12678;51.336;12.406;2023-07-16T06:18:18;26.80;99.90
24518;DHT22;12678;51.336;12.406;2023-07-16T06:20:44;26.40;99.90
24518;DHT22;12678;51.336;12.406;2023-07-16T06:23:10;25.70;99.90
24518;DHT22;12678;51.336;12.406;2023-07-16T06:25:37;25.40;99.90
24518;DHT22;12678;51.336;12.406;2023-07-16T06:28:03;25.10;99.90
24518;DHT22;12678;51.336;12.406;2023-07-16T06:30:29;25.00;99.90
24518;DHT22;12678;51.336;12.406;2023-07-16T06:32:57;24.80;99.90
24518;DHT22;12678;51.336;12.406;2023-07-16T06:35:23;24.70;99.90
24518;DHT22;12678;51.336;12.406;2023-07-16T06:37:48;24.70;99.90
24518;DHT22;12678;51.336;12.406;2023-07-16T06:40:14;24.50;99.90
24518;DHT22;12678;51.336;12.406;2023-07-16T06:42:40;24.50;99.90
24518;DHT22;12678;51.336;12.406;2023-07-16T06:45:06;24.40;99.90
24518;DHT22;12678;51.336;12.406;2023-07-16T06:47:31;24.50;99.90
24518;DHT22;12678;51.336;12.406;2023-07-16T06:49:57;24.50;99.90
24518;DHT22;12678;51.336;12.406;2023-07-16T06:52:23;24.80;99.90
24518;DHT22;12678;51.336;12.406;2023-07-16T06:54:56;25.30;99.90
24518;DHT22;12678;51.336;12.406;2023-07-16T06:57:23;26.20;99.90
24518;DHT22;12678;51.336;12.406;2023-07-16T06:59:48;26.90;99.90
24518;DHT22;12678;51.336;12.406;2023-07-16T07:02:16;27.50;99.90
24518;DHT22;12678;51.336;12.406;2023-07-16T07:04:42;28.20;99.90
24518;DHT22;12678;51.336;12.406;2023-07-16T07:07:08;28.90;99.90
24518;DHT22;12678;51.336;12.406;2023-07-16T07:09:34;28.90;99.90
24518;DHT22;12678;51.336;12.406;2023-07-16T07:11:59;28.80;99.90
24518;DHT22;12678;51.336;12.406;2023-07-16T07:14:25;28.80;99.90
24518;DHT22;12678;51.336;12.406;2023-07-16T07:16:51;28.70;99.90
24518;DHT22;12678;51.336;12.406;2023-07-16T07:19:16;28.70;99.90
24518;DHT22;12678;51.336;12.406;2023-07-16T07:21:42;28.90;99.10
24518;DHT22;12678;51.336;12.406;2023-07-16T07:24:07;29.30;98.40
24518;DHT22;12678;51.336;12.406;2023-07-16T07:26:33;29.40;97.60
24518;DHT22;12678;51.336;12.406;2023-07-16T07:28:59;29.80;96.90
24518;DHT22;12678;51.336;12.406;2023-07-16T07:31:25;29.30;97.20
24518;DHT22;12678;51.336;12.406;2023-07-16T07:33:50;29.10;96.90
24518;DHT22;12678;51.336;12.406;2023-07-16T07:36:16;29.00;97.30
24518;DHT22;12678;51.336;12.406;2023-07-16T07:38:41;28.90;97.50
24518;DHT22;12678;51.336;12.406;2023-07-16T07:41:07;28.90;97.00
24518;DHT22;12678;51.336;12.406;2023-07-16T07:43:33;28.80;96.90
24518;DHT22;12678;51.336;12.406;2023-07-16T07:45:58;28.90;96.60
24518;DHT22;12678;51.336;12.406;2023-07-16T07:48:24;28.60;95.70
24518;DHT22;12678;51.336;12.406;2023-07-16T07:50:50;28.40;95.60
24518;DHT22;12678;51.336;12.406;2023-07-16T07:53:16;28.00;96.00
24518;DHT22;12678;51.336;12.406;2023-07-16T07:55:43;27.80;96.10
24518;DHT22;12678;51.336;12.406;2023-07-16T07:58:11;27.60;96.70
24518;DHT22;12678;51.336;12.406;2023-07-16T08:00:37;27.50;97.10
24518;DHT22;12678;51.336;12.406;2023-07-16T08:03:03;27.60;96.60
24518;DHT22;12678;51.336;12.406;2023-07-16T08:05:28;27.60;96.20
24518;DHT22;12678;51.336;12.406;2023-07-16T08:07:54;27.90;95.90
24518;DHT22;12678;51.336;12.406;2023-07-16T08:10:21;27.80;95.00
24518;DHT22;12678;51.336;12.406;2023-07-16T08:12:47;27.90;94.80
24518;DHT22;12678;51.336;12.406;2023-07-16T08:15:13;27.60;94.90
24518;DHT22;12678;51.336;12.406;2023-07-16T08:17:42;27.80;95.10
24518;DHT22;12678;51.336;12.406;2023-07-16T08:20:09;28.30;94.50
24518;DHT22;12678;51.336;12.406;2023-07-16T08:22:35;28.60;94.00
24518;DHT22;12678;51.336;12.406;2023-07-16T08:25:01;28.80;91.60
24518;DHT22;12678;51.336;12.406;2023-07-16T08:27:29;28.90;92.00
24518;DHT22;12678;51.336;12.406;2023-07-16T08:29:54;29.30;91.00
24518;DHT22;12678;51.336;12.406;2023-07-16T08:32:20;29.20;88.50
24518;DHT22;12678;51.336;12.406;2023-07-16T08:34:46;29.30;87.30
24518;DHT22;12678;51.336;12.406;2023-07-16T08:37:12;29.30;88.10
24518;DHT22;12678;51.336;12.406;2023-07-16T08:39:38;29.50;88.00
24518;DHT22;12678;51.336;12.406;2023-07-16T08:42:04;29.60;84.90
24518;DHT22;12678;51.336;12.406;2023-07-16T08:44:30;29.60;85.00
24518;DHT22;12678;51.336;12.406;2023-07-16T08:46:56;29.80;85.50
24518;DHT22;12678;51.336;12.406;2023-07-16T08:49:22;29.80;84.60
24518;DHT22;12678;51.336;12.406;2023-07-16T08:51:49;29.80;84.60
24518;DHT22;12678;51.336;12.406;2023-07-16T08:54:15;29.80;83.40
24518;DHT22;12678;51.336;12.406;2023-07-16T08:56:46;29.90;83.80
24518;DHT22;12678;51.336;12.406;2023-07-16T08:59:14;30.00;82.00
24518;DHT22;12678;51.336;12.406;2023-07-16T09:01:40;30.10;83.50
24518;DHT22;12678;51.336;12.406;2023-07-16T09:04:06;30.20;80.10
24518;DHT22;12678;51.336;12.406;2023-07-16T09:06:32;30.40;80.00
24518;DHT22;12678;51.336;12.406;2023-07-16T09:08:57;30.50;79.10
24518;DHT22;12678;51.336;12.406;2023-07-16T09:11:23;30.30;70.70
24518;DHT22;12678;51.336;12.406;2023-07-16T09:13:49;30.20;70.40
24518;DHT22;12678;51.336;12.406;2023-07-16T09:16:18;30.00;70.60
24518;DHT22;12678;51.336;12.406;2023-07-16T09:18:44;29.90;71.70
24518;DHT22;12678;51.336;12.406;2023-07-16T09:21:10;29.70;73.70
24518;DHT22;12678;51.336;12.406;2023-07-16T09:23:37;29.70;73.00
24518;DHT22;12678;51.336;12.406;2023-07-16T09:26:03;29.80;74.00
24518;DHT22;12678;51.336;12.406;2023-07-16T09:28:30;29.70;73.00
24518;DHT22;12678;51.336;12.406;2023-07-16T09:31:02;29.90;73.60
24518;DHT22;12678;51.336;12.406;2023-07-16T09:33:28;30.00;73.20
24518;DHT22;12678;51.336;12.406;2023-07-16T09:35:54;30.20;73.30
24518;DHT22;12678;51.336;12.406;2023-07-16T09:38:20;30.10;72.40
24518;DHT22;12678;51.336;12.406;2023-07-16T09:40:47;29.90;73.40
24518;DHT22;12678;51.336;12.406;2023-07-16T09:43:13;29.60;72.30
24518;DHT22;12678;51.336;12.406;2023-07-16T09:45:42;29.70;72.00
24518;DHT22;12678;51.336;12.406;2023-07-16T09:48:08;29.80;70.40
24518;DHT22;12678;51.336;12.406;2023-07-16T09:50:35;29.90;70.90
24518;DHT22;12678;51.336;12.406;2023-07-16T09:53:01;29.70;68.40
24518;DHT22;12678;51.336;12.406;2023-07-16T09:55:32;29.80;69.10
24518;DHT22;12678;51.336;12.406;2023-07-16T09:58:01;29.70;67.60
24518;DHT22;12678;51.336;12.406;2023-07-16T10:00:27;29.60;68.70
24518;DHT22;12678;51.336;12.406;2023-07-16T10:02:54;29.80;67.50
24518;DHT22;12678;51.336;12.406;2023-07-16T10:05:24;29.80;67.70
24518;DHT22;12678;51.336;12.406;2023-07-16T10:07:52;29.90;68.60
24518;DHT22;12678;51.336;12.406;2023-07-16T10:10:18;29.90;67.50
24518;DHT22;12678;51.336;12.406;2023-07-16T10:12:55;29.60;67.90
24518;DHT22;12678;51.336;12.406;2023-07-16T10:15:28;29.50;68.20
24518;DHT22;12678;51.336;12.406;2023-07-16T10:17:54;29.40;69.40
24518;DHT22;12678;51.336;12.406;2023-07-16T10:20:35;29.20;69.60
24518;DHT22;12678;51.336;12.406;2023-07-16T10:23:15;29.00;69.50
24518;DHT22;12678;51.336;12.406;2023-07-16T10:26:01;29.00;69.30
24518;DHT22;12678;51.336;12.406;2023-07-16T10:28:31;29.10;70.80
24518;DHT22;12678;51.336;12.406;2023-07-16T10:30:57;29.20;70.30
24518;DHT22;12678;51.336;12.406;2023-07-16T10:33:23;29.20;69.50
24518;DHT22;12678;51.336;12.406;2023-07-16T10:35:48;29.00;70.40
24518;DHT22;12678;51.336;12.406;2023-07-16T10:38:14;29.20;69.60
24518;DHT22;12678;51.336;12.406;2023-07-16T10:40:44;29.20;70.50
24518;DHT22;12678;51.336;12.406;2023-07-16T10:43:11;29.20;69.40
24518;DHT22;12678;51.336;12.406;2023-07-16T10:45:37;29.20;69.40
24518;DHT22;12678;51.336;12.406;2023-07-16T10:48:03;29.30;69.00
24518;DHT22;12678;51.336;12.406;2023-07-16T10:50:31;29.40;69.50
24518;DHT22;12678;51.336;12.406;2023-07-16T10:52:57;29.50;68.60
24518;DHT22;12678;51.336;12.406;2023-07-16T10:55:23;29.50;67.60
24518;DHT22;12678;51.336;12.406;2023-07-16T10:57:50;29.40;66.60
24518;DHT22;12678;51.336;12.406;2023-07-16T11:00:16;29.50;67.20
24518;DHT22;12678;51.336;12.406;2023-07-16T11:02:43;29.50;67.90
24518;DHT22;12678;51.336;12.406;2023-07-16T11:05:13;29.60;67.60
24518;DHT22;12678;51.336;12.406;2023-07-16T11:07:43;29.70;65.70
24518;DHT22;12678;51.336;12.406;2023-07-16T11:10:10;29.70;66.60
24518;DHT22;12678;51.336;12.406;2023-07-16T11:12:36;29.70;67.00
24518;DHT22;12678;51.336;12.406;2023-07-16T11:15:01;29.80;66.00
24518;DHT22;12678;51.336;12.406;2023-07-16T11:17:27;30.00;67.70
24518;DHT22;12678;51.336;12.406;2023-07-16T11:19:53;29.80;65.90
24518;DHT22;12678;51.336;12.406;2023-07-16T11:22:27;29.80;65.90
24518;DHT22;12678;51.336;12.406;2023-07-16T11:24:53;29.50;66.00
24518;DHT22;12678;51.336;12.406;2023-07-16T11:27:26;29.60;66.40
24518;DHT22;12678;51.336;12.406;2023-07-16T11:29:54;29.60;67.00
24518;DHT22;12678;51.336;12.406;2023-07-16T11:32:34;29.60;65.50
24518;DHT22;12678;51.336;12.406;2023-07-16T11:35:05;29.60;65.90
24518;DHT22;12678;51.336;12.406;2023-07-16T11:37:32;29.70;65.80
24518;DHT22;12678;51.336;12.406;2023-07-16T11:39:59;29.80;65.50
24518;DHT22;12678;51.336;12.406;2023-07-16T11:42:30;29.90;64.90
24518;DHT22;12678;51.336;12.406;2023-07-16T11:44:56;29.80;63.30
24518;DHT22;12678;51.336;12.406;2023-07-16T11:47:22;29.80;63.50
24518;DHT22;12678;51.336;12.406;2023-07-16T11:49:48;29.80;63.40
24518;DHT22;12678;51.336;12.406;2023-07-16T11:52:18;29.80;62.60
24518;DHT22;12678;51.336;12.406;2023-07-16T11:54:43;29.70;63.00
24518;DHT22;12678;51.336;12.406;2023-07-16T11:57:09;29.60;63.80
24518;DHT22;12678;51.336;12.406;2023-07-16T11:59:35;29.60;63.90
24518;DHT22;12678;51.336;12.406;2023-07-16T12:02:00;29.70;64.20
24518;DHT22;12678;51.336;12.406;2023-07-16T12:04:26;29.70;63.90
24518;DHT22;12678;51.336;12.406;2023-07-16T12:06:52;29.80;64.50
24518;DHT22;12678;51.336;12.406;2023-07-16T12:09:18;29.80;63.50
24518;DHT22;12678;51.336;12.406;2023-07-16T12:11:43;29.70;63.00
24518;DHT22;12678;51.336;12.406;2023-07-16T12:14:10;29.70;64.10
24518;DHT22;12678;51.336;12.406;2023-07-16T12:16:37;29.50;63.60
24518;DHT22;12678;51.336;12.406;2023-07-16T12:19:03;29.40;62.70
24518;DHT22;12678;51.336;12.406;2023-07-16T12:21:28;29.20;63.70
24518;DHT22;12678;51.336;12.406;2023-07-16T12:23:54;29.30;63.10
24518;DHT22;12678;51.336;12.406;2023-07-16T12:26:19;29.40;63.50
24518;DHT22;12678;51.336;12.406;2023-07-16T12:28:45;29.50;62.80
24518;DHT22;12678;51.336;12.406;2023-07-16T12:31:11;29.60;63.50
24518;DHT22;12678;51.336;12.406;2023-07-16T12:33:37;29.70;61.90
24518;DHT22;12678;51.336;12.406;2023-07-16T12:36:03;29.70;60.80
24518;DHT22;12678;51.336;12.406;2023-07-16T12:38:29;29.70;61.40
24518;DHT22;12678;51.336;12.406;2023-07-16T12:40:54;29.70;60.80
24518;DHT22;12678;51.336;12.406;2023-07-16T12:43:20;29.70;60.90
24518;DHT22;12678;51.336;12.406;2023-07-16T12:45:45;29.70;60.40
24518;DHT22;12678;51.336;12.406;2023-07-16T12:48:11;29.80;61.30
24518;DHT22;12678;51.336;12.406;2023-07-16T12:50:37;29.70;60.30
24518;DHT22;12678;51.336;12.406;2023-07-16T12:53:02;29.70;60.00
24518;DHT22;12678;51.336;12.406;2023-07-16T12:55:28;29.80;60.00
24518;DHT22;12678;51.336;12.406;2023-07-16T12:57:56;29.80;60.00
24518;DHT22;12678;51.336;12.406;2023-07-16T13:00:22;29.60;58.90
24518;DHT22;12678;51.336;12.406;2023-07-16T13:02:47;29.50;58.70
24518;DHT22;12678;51.336;12.406;2023-07-16T13:05:13;29.40;59.50
24518;DHT22;12678;51.336;12.406;2023-07-16T13:07:38;29.10;60.60
24518;DHT22;12678;51.336;12.406;2023-07-16T13:10:05;29.20;61.10
24518;DHT22;12678;51.336;12.406;2023-07-16T13:12:31;29.20;61.80
24518;DHT22;12678;51.336;12.406;2023-07-16T13:14:57;29.20;61.10
24518;DHT22;12678;51.336;12.406;2023-07-16T13:17:23;29.00;60.40
24518;DHT22;12678;51.336;12.406;2023-07-16T13:19:48;29.00;61.50
24518;DHT22;12678;51.336;12.406;2023-07-16T13:22:14;29.20;61.20
24518;DHT22;12678;51.336;12.406;2023-07-16T13:24:40;29.20;60.70
24518;DHT22;12678;51.336;12.406;2023-07-16T13:27:05;29.10;60.80
24518;DHT22;12678;51.336;12.406;2023-07-16T13:29:31;29.20;62.00
24518;DHT22;12678;51.336;12.406;2023-07-16T13:31:57;29.20;60.00
24518;DHT22;12678;51.336;12.406;2023-07-16T13:34:22;29.10;60.60
24518;DHT22;12678;51.336;12.406;2023-07-16T13:36:48;29.00;59.80
24518;DHT22;12678;51.336;12.406;2023-07-16T13:39:13;28.90;60.00
24518;DHT22;12678;51.336;12.406;2023-07-16T13:41:40;28.80;61.30
24518;DHT22;12678;51.336;12.406;2023-07-16T13:44:05;28.70;61.80
24518;DHT22;12678;51.336;12.406;2023-07-16T13:46:31;28.70;62.00
24518;DHT22;12678;51.336;12.406;2023-07-16T13:48:56;28.70;63.60
24518;DHT22;12678;51.336;12.406;2023-07-16T13:51:23;28.80;63.50
24518;DHT22;12678;51.336;12.406;2023-07-16T13:53:48;28.90;62.10
24518;DHT22;12678;51.336;12.406;2023-07-16T13:56:14;28.90;62.30
24518;DHT22;12678;51.336;12.406;2023-07-16T13:58:39;29.00;61.60
24518;DHT22;12678;51.336;12.406;2023-07-16T14:01:05;28.90;62.20
24518;DHT22;12678;51.336;12.406;2023-07-16T14:03:31;28.90;63.00
24518;DHT22;12678;51.336;12.406;2023-07-16T14:05:56;28.80;62.10
24518;DHT22;12678;51.336;12.406;2023-07-16T14:08:22;28.80;61.70
24518;DHT22;12678;51.336;12.406;2023-07-16T14:10:48;28.70;61.90
24518;DHT22;12678;51.336;12.406;2023-07-16T14:13:14;28.70;62.00
24518;DHT22;12678;51.336;12.406;2023-07-16T14:15:41;28.70;61.20
24518;DHT22;12678;51.336;12.406;2023-07-16T14:18:07;28.60;62.00
24518;DHT22;12678;51.336;12.406;2023-07-16T14:20:32;28.50;61.10
24518;DHT22;12678;51.336;12.406;2023-07-16T14:22:58;28.40;62.30
24518;DHT22;12678;51.336;12.406;2023-07-16T14:25:24;28.40;62.70
24518;DHT22;12678;51.336;12.406;2023-07-16T14:27:49;28.40;64.00
24518;DHT22;12678;51.336;12.406;2023-07-16T14:30:15;28.40;63.80
24518;DHT22;12678;51.336;12.406;2023-07-16T14:32:41;28.30;63.90
24518;DHT22;12678;51.336;12.406;2023-07-16T14:35:08;28.30;63.70
24518;DHT22;12678;51.336;12.406;2023-07-16T14:37:34;28.40;62.90
24518;DHT22;12678;51.336;12.406;2023-07-16T14:39:59;28.50;61.60
24518;DHT22;12678;51.336;12.406;2023-07-16T14:42:25;28.60;61.40
24518;DHT22;12678;51.336;12.406;2023-07-16T14:44:51;28.50;60.90
24518;DHT22;12678;51.336;12.406;2023-07-16T14:47:17;28.30;59.80
24518;DHT22;12678;51.336;12.406;2023-07-16T14:49:43;28.20;61.60
24518;DHT22;12678;51.336;12.406;2023-07-16T14:52:08;28.20;61.70
24518;DHT22;12678;51.336;12.406;2023-07-16T14:54:34;28.20;61.60
24518;DHT22;12678;51.336;12.406;2023-07-16T14:57:01;28.20;61.20
24518;DHT22;12678;51.336;12.406;2023-07-16T14:59:28;28.20;61.50
24518;DHT22;12678;51.336;12.406;2023-07-16T15:01:54;28.10;61.60
24518;DHT22;12678;51.336;12.406;2023-07-16T15:04:19;28.00;61.20
24518;DHT22;12678;51.336;12.406;2023-07-16T15:06:45;28.10;61.80
24518;DHT22;12678;51.336;12.406;2023-07-16T15:09:11;28.00;59.80
24518;DHT22;12678;51.336;12.406;2023-07-16T15:11:39;28.00;60.40
24518;DHT22;12678;51.336;12.406;2023-07-16T15:14:04;28.00;60.70
24518;DHT22;12678;51.336;12.406;2023-07-16T15:16:30;28.00;61.20
24518;DHT22;12678;51.336;12.406;2023-07-16T15:18:56;27.90;61.00